Acme, PA

11:06 PM EDT on August 27, 2014 (GMT -0400)
Parkview Terrace | Change Station
CLOSE
Current Station
Personal Weather Station
Location: Mt Pleasant, PA
Elevation: 1138 ft
Nearby Weather Stations

Elev 1138 ft 40.14 °N, 79.54 °W | Updated 2 minutes ago

Mostly Cloudy
Mostly Cloudy
71.1 °F
Feels Like 71.1 °F
N
0.0
Wind Variable Wind from WNW

Today
High -- | Low -- °F
--% Chance of Precip.
Yesterday
High -- | Low -- °F
Precip. -- in
6:40 AM 7:57 PM
Waxing Crescent, 6% visible
Pressure 30.06 in
Visibility 6.0 miles
Clouds Few 2000 ft
Mostly Cloudy 3000 ft
Overcast 6000 ft
Dew Point 70 °F
Humidity 97%
Rainfall 0.98 in
Snow Depth Not available.
UV 0 out of 12
Pollen 10.40 out of 12
Air Quality Not available.
Flu Activity Not available.
METAR KLBE 280255Z AUTO 00000KT 6SM BR FEW020 BKN030 OVC060 21/21 A3006 RMK A02 P000

More Conditions Fewer Conditions

Pressure 30.06 in
Visibility 6.0 miles
Clouds Few 2000 ft
Mostly Cloudy 3000 ft
Overcast 6000 ft
Dew Point 70 °F
Humidity 97%
Rainfall 0.98 in
Snow Depth Not available.
UV 0 out of 12
Pollen 10.40 out of 12
Air Quality Not available.
Flu Activity Not available.
METAR KLBE 280255Z AUTO 00000KT 6SM BR FEW020 BKN030 OVC060 21/21 A3006 RMK A02 P000

More Conditions Fewer Conditions

10-Day Weather Forecast

Almanac

Astronomy

Aug. 27, 2014 Rise Set
Actual Time 6:40 AM EDT 7:57 PM EDT
Civil Twilight 6:12 AM EDT 8:25 PM EDT
Nautical Twilight 5:38 AM EDT 8:58 PM EDT
Astronomical Twilight 5:03 AM EDT 9:34 PM EDT
Moon 8:35 AM EDT (8/27) 8:48 PM EDT (8/27)
Length of Visible Light 14h 12m
Length of Day
13h 16m
Tomorrow will be 2m 29s shorter.
Waxing Crescent, 6% of the Moon is Illuminated
Today
Waxing Crescent
Sep 2
First Quarter
Sep 8
Full
Sep 15
Last Quarter
Sep 24
New

Today's Extremes

State Highs State Lows

Community

WunderPhotos

Upload Photos

1,747,888 photos uploaded!

Nearby

Snow Depth

Station Depth Elevation
No new snow has been reported.

Earthquake Activity

City Distance Mag. Time & Date
No recent earthquake activity has been reported nearby.
Minimum magnitude displayed is 2.5.

Coastal Water Temperatures

Place Temperature
No Stations Reporting

Nearby Weather Stations